Main page
METAR-TAF:

METAR-TAF

Airports :

Santa Cruz Air Force Base

Santa Cruz, Rio de Janeiro, Brazil

latitude: 22-56S, longitude: 043-43W, elevation: 3 m

Current weather observation

The report was made 27 minutes ago, at 14:00 UTC
Wind 15 kt from the North/Northwest
Temperature 34°C
Humidity 47%
Pressure 1009 hPa
Visibility 10 km or more
no clouds below 1500 m and no cumulonimbus

METAR: SBSC 141400Z 34015KT CAVOK 34/21 Q1009

Time: 12:27 (14:27 UTC)

Forecast

The report was made 5 hours and 57 minutes ago, at 08:30 UTC
Forecast valid from 14 at 12 UTC to 14 at 24 UTC
Wind 7 kt from the North/Northeast
Visibility 10 km or more
no clouds below 1500 m and no cumulonimbus
Becoming
from 14 at 12 UTC to 14 at 14 UTC
Wind 8 kt from the Southeast
Visibility 10 km or more
Few clouds at a height of 3000 ft

TAF: SBSC 140830Z 1412/1424 03007KT CAVOK TX38/1418Z TN25/1424Z BECMG 1412/1414 14008KT 9999 FEW030 RMK PDJ

Weather observations and forecasts of more than 4000 airports (METAR and TAF reports).

The available stations are represented by yellow and red dots on the map.

Hover mouse over dot to see the name of the station.

Then click to see weather observations and forecasts.

To change the map : click on the green buttons with a black cross to zoom in, on the green button with a dash to zoom out, or on the green arrows for adjacent maps.


METAR-TAF: